Time;durP1;ratioP1;P1;durP2;ratioP2;P2;SDS_P1;SDS_P2;PMS_P1;PMS_P2;Temp;Humidity;BMP_temperature;BMP_pressure;BME280_temperature;BME280_humidity;BME280_pressure;Samples;Min_cycle;Max_cycle;Signal;HPM_P1;HPM_P2
2022/11/16 00:01:16;;;;;;;2.45;1.70;;;13.90;83.20;;;;;;5012450;28;20109;-67
2022/11/16 00:03:42;;;;;;;2.15;1.73;;;13.90;83.10;;;;;;5010517;28;20038;-66
2022/11/16 00:06:09;;;;;;;2.38;1.65;;;13.90;83.20;;;;;;5012882;28;20431;-67
2022/11/16 00:08:40;;;;;;;2.67;1.95;;;13.90;83.80;;;;;;5012437;28;20053;-67
2022/11/16 00:11:09;;;;;;;1.77;1.60;;;13.90;83.10;;;;;;5012630;28;20014;-66
2022/11/16 00:13:36;;;;;;;2.33;1.70;;;13.90;83.00;;;;;;5011268;28;20025;-67
2022/11/16 00:16:03;;;;;;;2.03;1.67;;;13.90;83.00;;;;;;5023411;28;20419;-67
2022/11/16 00:18:29;;;;;;;2.75;2.13;;;13.90;83.00;;;;;;5019927;28;20437;-67
2022/11/16 00:20:55;;;;;;;4.20;2.05;;;13.90;83.10;;;;;;5029665;28;20049;-67
2022/11/16 00:23:21;;;;;;;3.08;2.00;;;13.90;83.20;;;;;;5029190;28;20056;-67
2022/11/16 00:25:47;;;;;;;4.35;2.28;;;13.90;83.30;;;;;;5026914;28;20025;-67
2022/11/16 00:28:13;;;;;;;4.55;1.80;;;13.90;83.30;;;;;;5017745;28;20029;-67
2022/11/16 00:30:39;;;;;;;4.15;2.70;;;13.90;83.30;;;;;;5014122;28;20026;-67
2022/11/16 00:33:06;;;;;;;2.72;1.70;;;13.90;83.50;;;;;;5021386;28;20507;-67
2022/11/16 00:35:37;;;;;;;3.38;2.20;;;13.90;83.50;;;;;;5026716;28;20065;-66
2022/11/16 00:38:02;;;;;;;3.13;2.17;;;13.90;83.60;;;;;;5028099;28;20084;-66
2022/11/16 00:40:28;;;;;;;3.20;1.90;;;13.90;83.60;;;;;;5014546;28;20058;-66
2022/11/16 00:42:54;;;;;;;2.90;2.38;;;13.90;83.50;;;;;;5011558;28;20376;-67
2022/11/16 00:45:19;;;;;;;3.72;2.20;;;13.90;84.10;;;;;;5043636;28;20104;-66
2022/11/16 00:47:45;;;;;;;3.42;2.58;;;13.90;83.60;;;;;;5043112;28;20045;-66
2022/11/16 00:50:11;;;;;;;2.88;2.08;;;13.90;83.60;;;;;;5010078;28;20219;-66
2022/11/16 00:52:36;;;;;;;2.20;1.88;;;13.90;83.60;;;;;;5011846;28;20054;-66
2022/11/16 00:55:02;;;;;;;1.95;1.75;;;13.90;83.50;;;;;;4999137;28;20342;-67
2022/11/16 00:57:28;;;;;;;2.80;2.03;;;13.90;83.50;;;;;;5012361;28;20033;-67
2022/11/16 00:59:54;;;;;;;5.50;2.72;;;13.90;83.70;;;;;;5010555;28;20100;-67
2022/11/16 01:02:19;;;;;;;4.97;2.67;;;13.80;83.80;;;;;;5012298;28;20390;-67
2022/11/16 01:04:45;;;;;;;3.35;1.92;;;13.80;83.90;;;;;;5011733;28;20175;-67
2022/11/16 01:07:11;;;;;;;3.50;1.98;;;13.80;84.00;;;;;;5011900;28;20044;-67
2022/11/16 01:09:37;;;;;;;3.35;2.00;;;13.80;84.00;;;;;;5011227;28;20534;-67
2022/11/16 01:12:09;;;;;;;3.17;1.63;;;13.80;83.90;;;;;;5011999;28;20034;-67
2022/11/16 01:14:43;;;;;;;2.60;2.08;;;13.90;83.90;;;;;;5011176;28;20104;-67
2022/11/16 01:17:09;;;;;;;2.78;1.77;;;13.90;83.80;;;;;;5010972;28;20045;-67
2022/11/16 01:19:36;;;;;;;2.80;2.13;;;13.90;83.90;;;;;;5010244;28;20488;-67
2022/11/16 01:22:02;;;;;;;2.50;1.80;;;13.90;84.00;;;;;;5012389;28;20634;-67
2022/11/16 01:24:28;;;;;;;3.60;2.80;;;13.80;84.00;;;;;;5010663;28;20025;-67
2022/11/16 01:26:55;;;;;;;3.83;2.35;;;13.90;84.00;;;;;;5011502;28;20095;-67
2022/11/16 01:29:24;;;;;;;3.00;2.25;;;13.90;84.00;;;;;;5010728;28;20376;-67
2022/11/16 01:31:49;;;;;;;5.00;1.95;;;13.90;84.20;;;;;;5009737;28;20030;-67
2022/11/16 01:34:15;;;;;;;3.70;2.45;;;13.90;84.10;;;;;;5010642;28;20026;-66
2022/11/16 01:36:41;;;;;;;2.53;2.00;;;13.90;84.20;;;;;;5014499;28;20045;-66
2022/11/16 01:39:07;;;;;;;3.33;2.13;;;13.90;84.10;;;;;;5015309;28;20044;-66
2022/11/16 01:41:33;;;;;;;2.15;1.90;;;13.90;84.00;;;;;;5013034;28;20028;-66
2022/11/16 01:44:05;;;;;;;3.10;2.58;;;13.90;84.10;;;;;;5010668;28;20040;-66
2022/11/16 01:46:31;;;;;;;;;;;13.90;84.70;;;;;;5024203;28;20014;-66
2022/11/16 01:49:13;;;;;;;2.47;2.10;;;13.90;84.20;;;;;;5009873;28;19927;-66
2022/11/16 01:51:41;;;;;;;3.15;2.20;;;13.80;84.10;;;;;;5010754;28;20477;-66
2022/11/16 01:54:09;;;;;;;3.05;2.22;;;13.90;84.00;;;;;;5010678;28;20021;-66
2022/11/16 01:56:37;;;;;;;3.78;2.30;;;13.90;84.00;;;;;;5011732;28;20472;-67
2022/11/16 01:59:03;;;;;;;9.40;2.17;;;13.90;84.00;;;;;;5010173;28;20033;-67
2022/11/16 02:01:29;;;;;;;3.03;2.40;;;13.90;84.10;;;;;;5015828;28;20034;-67
2022/11/16 02:03:55;;;;;;;2.70;1.90;;;13.90;84.00;;;;;;5014964;28;20045;-67
2022/11/16 02:06:27;;;;;;;2.97;1.95;;;13.90;84.00;;;;;;5014960;28;20030;-67
2022/11/16 02:12:16;;;;;;;2.83;2.15;;;13.90;84.10;;;;;;5006524;28;20122;-67
2022/11/16 02:15:02;;;;;;;2.42;2.22;;;13.90;84.00;;;;;;5011974;28;20045;-67
2022/11/16 02:17:43;;;;;;;2.47;2.05;;;13.90;84.10;;;;;;5013636;28;20029;-67
2022/11/16 02:20:40;;;;;;;2.67;1.60;;;13.90;84.10;;;;;;5014425;28;20540;-67
2022/11/16 02:23:12;;;;;;;2.15;1.73;;;14.00;84.00;;;;;;5034855;28;20519;-67
2022/11/16 02:26:03;;;;;;;3.92;2.15;;;13.90;84.00;;;;;;5015561;28;20057;-66
2022/11/16 02:28:45;;;;;;;2.40;1.80;;;13.90;84.00;;;;;;5015606;28;20031;-66
2022/11/16 02:31:16;;;;;;;2.28;1.88;;;13.90;84.10;;;;;;5026871;28;20029;-66
2022/11/16 02:33:45;;;;;;;1.52;1.35;;;13.90;84.10;;;;;;5023865;28;20034;-66
2022/11/16 02:36:16;;;;;;;2.13;1.67;;;13.90;84.00;;;;;;5044749;28;20022;-66
2022/11/16 02:38:50;;;;;;;5.72;2.40;;;14.00;84.00;;;;;;5018832;28;20112;-66
2022/11/16 02:41:20;;;;;;;5.95;2.83;;;13.90;83.90;;;;;;5017418;28;20022;-67
2022/11/16 02:43:53;;;;;;;2.38;1.92;;;14.00;83.90;;;;;;5014355;28;20041;-67
2022/11/16 02:46:25;;;;;;;3.85;2.63;;;14.00;83.90;;;;;;5018364;28;20029;-67
2022/11/16 02:48:56;;;;;;;2.72;2.45;;;14.00;84.00;;;;;;5016477;28;20030;-67
2022/11/16 02:51:25;;;;;;;3.20;1.92;;;14.00;84.00;;;;;;5018133;28;20026;-67
2022/11/16 02:54:14;;;;;;;2.90;1.83;;;13.90;84.00;;;;;;5023313;28;20053;-67
2022/11/16 02:57:01;;;;;;;5.65;2.22;;;13.90;83.90;;;;;;5020528;28;20480;-67
2022/11/16 02:59:38;;;;;;;3.28;2.22;;;13.90;83.90;;;;;;5017960;28;20018;-67
2022/11/16 03:02:34;;;;;;;7.82;2.28;;;13.90;84.00;;;;;;5014997;28;20026;-67
2022/11/16 03:05:06;;;;;;;2.92;1.67;;;13.90;83.90;;;;;;5008124;28;20461;-67
2022/11/16 03:07:44;;;;;;;2.28;2.08;;;14.00;83.90;;;;;;5016361;28;20021;-67
2022/11/16 03:10:10;;;;;;;2.08;1.77;;;13.90;83.90;;;;;;5024385;28;20056;-68
2022/11/16 03:12:39;;;;;;;1.83;1.60;;;13.90;83.80;;;;;;5017690;28;20022;-68
2022/11/16 03:15:08;;;;;;;3.92;2.80;;;13.90;83.90;;;;;;5019617;28;20034;-68
2022/11/16 03:17:46;;;;;;;2.78;2.35;;;13.90;84.00;;;;;;5011468;28;20101;-68
2022/11/16 03:20:16;;;;;;;3.30;2.20;;;13.90;83.90;;;;;;5015426;28;20072;-68
2022/11/16 03:22:52;;;;;;;3.13;1.98;;;13.90;83.90;;;;;;5021805;28;20088;-68
2022/11/16 03:25:20;;;;;;;2.63;1.90;;;13.90;83.90;;;;;;5049129;28;20052;-68
2022/11/16 03:27:54;;;;;;;4.53;2.55;;;14.00;83.90;;;;;;5030310;28;20380;-69
2022/11/16 03:30:32;;;;;;;2.35;1.83;;;13.90;83.90;;;;;;5016549;28;20088;-69
2022/11/16 03:33:16;;;;;;;3.55;2.58;;;13.90;83.90;;;;;;5035119;28;20026;-68
2022/11/16 03:35:54;;;;;;;2.60;1.80;;;13.90;84.00;;;;;;5012629;28;20060;-67
2022/11/16 03:38:23;;;;;;;7.25;1.95;;;13.90;84.00;;;;;;5041325;28;20044;-67
2022/11/16 03:40:50;;;;;;;1.60;1.50;;;13.90;84.00;;;;;;5013657;28;20021;-67
2022/11/16 03:43:18;;;;;;;3.30;1.88;;;13.90;84.00;;;;;;5012568;28;20116;-67
2022/11/16 03:45:45;;;;;;;2.08;1.73;;;13.90;84.00;;;;;;5013987;28;20037;-67
2022/11/16 03:48:12;;;;;;;5.00;2.47;;;13.90;84.00;;;;;;5009451;28;20402;-66
2022/11/16 03:50:39;;;;;;;2.53;2.00;;;13.90;84.00;;;;;;5024583;28;20026;-68
2022/11/16 03:53:04;;;;;;;2.80;2.10;;;13.90;84.10;;;;;;5022703;28;20471;-68
2022/11/16 03:55:30;;;;;;;4.10;2.55;;;13.90;84.00;;;;;;5026234;28;20022;-68
2022/11/16 03:57:56;;;;;;;4.25;2.33;;;13.90;84.10;;;;;;5007571;28;20029;-68
2022/11/16 04:00:21;;;;;;;2.58;2.35;;;13.90;84.10;;;;;;5020659;28;20049;-68
2022/11/16 04:02:47;;;;;;;5.28;2.78;;;13.90;84.10;;;;;;5023795;28;20496;-67
2022/11/16 04:24:38;;;;;;;2.72;2.17;;;13.80;84.40;;;;;;5018405;28;20057;-67
2022/11/16 04:29:57;;;;;;;2.55;1.88;;;13.80;84.60;;;;;;5016653;28;20530;-67
2022/11/16 04:37:47;;;;;;;2.17;1.80;;;13.80;84.70;;;;;;5026157;28;20087;-67
2022/11/16 04:38:11;;;;;;;4.32;2.88;;;13.80;84.70;;;;;;5028366;28;20156;-67
2022/11/16 04:40:37;;;;;;;5.00;2.85;;;13.80;85.00;;;;;;5028177;28;20155;-67
2022/11/16 04:43:03;;;;;;;2.40;2.03;;;13.80;85.00;;;;;;5029644;28;20491;-67
2022/11/16 04:48:15;;;;;;;1.90;1.67;;;13.80;84.90;;;;;;5015893;28;20456;-67
2022/11/16 04:50:42;;;;;;;1.83;1.48;;;13.80;84.90;;;;;;5019900;28;20237;-67
2022/11/16 04:53:08;;;;;;;2.83;2.00;;;13.80;84.80;;;;;;5014479;28;20061;-67
2022/11/16 04:55:34;;;;;;;1.65;1.48;;;13.90;84.80;;;;;;5022086;28;20072;-67
2022/11/16 04:58:00;;;;;;;2.35;1.98;;;13.90;84.80;;;;;;5012985;28;20021;-67
2022/11/16 05:00:26;;;;;;;2.65;1.70;;;13.90;84.80;;;;;;5015017;28;20038;-67
2022/11/16 05:02:52;;;;;;;2.17;1.50;;;13.90;84.80;;;;;;5018754;28;20084;-67
2022/11/16 05:05:18;;;;;;;3.20;1.45;;;13.80;84.80;;;;;;5018894;28;20444;-67
2022/11/16 05:07:44;;;;;;;1.10;1.00;;;13.80;84.90;;;;;;5016253;28;20049;-67
2022/11/16 05:10:11;;;;;;;1.92;0.60;;;13.80;85.30;;;;;;5014063;28;20084;-67
2022/11/16 05:12:36;;;;;;;1.17;0.98;;;13.70;84.70;;;;;;5016536;28;20033;-67
2022/11/16 05:15:03;;;;;;;0.65;0.65;;;13.70;84.70;;;;;;5013181;28;20022;-67
2022/11/16 05:17:29;;;;;;;1.15;0.75;;;13.60;84.60;;;;;;5011446;28;20512;-67
2022/11/16 05:22:39;;;;;;;1.27;0.65;;;13.60;84.40;;;;;;5014295;28;20037;-66
2022/11/16 05:25:07;;;;;;;1.33;0.88;;;13.60;84.40;;;;;;5014628;28;20034;-67
2022/11/16 05:27:33;;;;;;;0.65;0.50;;;13.50;84.40;;;;;;5014608;28;20033;-67
2022/11/16 05:29:59;;;;;;;0.60;0.60;;;13.50;84.30;;;;;;5008593;28;20061;-67
2022/11/16 05:32:26;;;;;;;1.35;0.80;;;13.50;84.20;;;;;;5022417;28;20472;-68
2022/11/16 05:34:52;;;;;;;1.45;0.65;;;13.50;84.10;;;;;;5024604;28;20217;-67
2022/11/16 05:37:19;;;;;;;0.50;0.47;;;13.50;84.10;;;;;;5057056;28;20029;-68
2022/11/16 05:39:46;;;;;;;0.70;0.68;;;13.50;84.10;;;;;;5015767;28;20121;-68
2022/11/16 05:42:12;;;;;;;1.02;0.65;;;13.40;84.10;;;;;;5012955;28;20656;-67
2022/11/16 05:44:39;;;;;;;1.75;0.95;;;13.50;84.00;;;;;;5016089;28;20107;-67
2022/11/16 05:47:05;;;;;;;0.60;0.60;;;13.50;83.90;;;;;;5015853;28;20026;-67
2022/11/16 05:49:30;;;;;;;1.42;0.63;;;13.40;83.80;;;;;;5005401;28;20496;-67
2022/11/16 05:51:56;;;;;;;0.60;0.60;;;13.40;83.80;;;;;;5025974;28;20044;-68
2022/11/16 05:54:25;;;;;;;0.57;0.57;;;13.40;83.80;;;;;;5012446;28;20378;-68
2022/11/16 05:56:51;;;;;;;0.55;0.55;;;13.40;83.80;;;;;;5010022;28;20152;-68
2022/11/16 05:59:19;;;;;;;1.20;0.85;;;13.40;83.70;;;;;;5013501;28;20028;-68
2022/11/16 06:01:45;;;;;;;2.80;0.98;;;13.40;83.70;;;;;;5017020;28;20412;-67
2022/11/16 06:04:11;;;;;;;0.98;0.55;;;13.40;83.60;;;;;;5017967;28;20048;-69
2022/11/16 06:06:37;;;;;;;0.95;0.70;;;13.40;83.60;;;;;;5028028;28;20034;-71
2022/11/16 06:09:03;;;;;;;2.22;1.17;;;13.40;84.20;;;;;;5008222;28;20105;-71
2022/11/16 06:11:29;;;;;;;2.25;1.25;;;13.40;83.70;;;;;;5010821;28;20493;-69
2022/11/16 06:13:54;;;;;;;2.03;1.05;;;13.40;84.40;;;;;;5024853;28;20415;-73
2022/11/16 06:16:20;;;;;;;1.08;0.98;;;13.40;83.90;;;;;;5022451;28;20029;-73
2022/11/16 06:18:47;;;;;;;1.90;1.13;;;13.30;83.90;;;;;;5021142;28;20044;-73
2022/11/16 06:21:16;;;;;;;1.02;1.00;;;13.40;83.90;;;;;;5014853;28;20026;-74
2022/11/16 06:23:42;;;;;;;1.65;1.55;;;13.40;83.80;;;;;;5024195;28;20034;-74
2022/11/16 06:26:08;;;;;;;2.08;1.30;;;13.40;84.10;;;;;;5014456;28;20161;-75
2022/11/16 06:28:34;;;;;;;1.65;1.27;;;13.30;84.20;;;;;;5013763;28;20610;-74
2022/11/16 06:30:59;;;;;;;3.05;1.40;;;13.30;84.30;;;;;;4995816;28;20061;-73
2022/11/16 06:33:25;;;;;;;2.53;1.55;;;13.20;84.30;;;;;;5026790;28;20057;-73
2022/11/16 06:35:51;;;;;;;2.78;1.67;;;13.20;84.40;;;;;;5013923;28;20104;-74
2022/11/16 06:38:17;;;;;;;2.20;1.00;;;13.10;84.40;;;;;;5014296;28;20510;-75
2022/11/16 06:40:51;;;;;;;2.20;0.70;;;13.10;84.50;;;;;;5028200;28;20026;-73
2022/11/16 06:43:17;;;;;;;1.70;0.93;;;13.10;84.40;;;;;;5021668;28;20029;-74
2022/11/16 06:45:46;;;;;;;0.93;0.90;;;13.10;85.00;;;;;;5017001;28;20029;-73
2022/11/16 06:48:12;;;;;;;1.05;0.80;;;13.10;84.40;;;;;;5013503;28;20040;-73
2022/11/16 06:50:37;;;;;;;0.65;0.60;;;13.10;84.40;;;;;;5044988;28;20038;-75
2022/11/16 06:53:03;;;;;;;1.88;1.35;;;13.00;84.30;;;;;;5029768;28;20525;-74
2022/11/16 06:55:29;;;;;;;0.90;0.77;;;12.90;84.30;;;;;;5018824;28;20052;-71
2022/11/16 06:57:55;;;;;;;4.32;1.15;;;12.90;84.30;;;;;;5028572;28;20502;-70
2022/11/16 07:00:21;;;;;;;2.20;1.00;;;12.90;84.30;;;;;;5011183;28;20507;-71
2022/11/16 07:02:46;;;;;;;1.02;0.80;;;12.90;84.30;;;;;;5017832;28;20037;-71
2022/11/16 07:05:12;;;;;;;2.35;1.40;;;12.80;84.30;;;;;;5047799;28;20044;-71
2022/11/16 07:07:38;;;;;;;1.52;1.10;;;12.80;84.30;;;;;;5009024;28;20033;-68
2022/11/16 07:10:04;;;;;;;1.42;0.90;;;12.80;84.30;;;;;;5011256;28;20026;-69
2022/11/16 07:12:30;;;;;;;1.10;0.95;;;12.70;84.10;;;;;;5026206;28;20022;-70
2022/11/16 07:14:55;;;;;;;2.20;0.77;;;12.70;84.10;;;;;;5013990;28;20033;-71
2022/11/16 07:17:21;;;;;;;2.08;1.02;;;12.60;84.10;;;;;;5014438;28;20045;-71
2022/11/16 07:19:47;;;;;;;2.05;1.05;;;12.60;84.20;;;;;;5013319;28;20029;-71
2022/11/16 07:22:12;;;;;;;1.10;1.00;;;12.60;84.20;;;;;;5015353;28;20065;-67
2022/11/16 07:24:38;;;;;;;0.93;0.90;;;12.60;84.10;;;;;;5013185;28;20038;-72
2022/11/16 07:27:04;;;;;;;0.60;0.60;;;12.60;84.10;;;;;;5047078;28;20076;-73
2022/11/16 07:29:30;;;;;;;4.88;0.98;;;12.60;84.10;;;;;;5009820;28;20117;-71
2022/11/16 07:31:56;;;;;;;0.80;0.68;;;12.60;84.00;;;;;;5015722;28;20045;-71
2022/11/16 07:34:21;;;;;;;2.83;0.70;;;12.50;84.00;;;;;;5018386;28;20029;-70
2022/11/16 07:36:47;;;;;;;0.77;0.70;;;12.50;84.00;;;;;;5014866;28;20484;-70
2022/11/16 07:39:13;;;;;;;1.27;1.00;;;12.50;83.90;;;;;;5020963;28;20061;-70
2022/11/16 07:41:38;;;;;;;1.33;0.95;;;12.50;83.80;;;;;;5017046;28;20055;-68
2022/11/16 07:44:04;;;;;;;1.75;0.93;;;12.50;83.80;;;;;;5017447;28;20444;-67
2022/11/16 07:46:30;;;;;;;1.58;1.02;;;12.50;83.80;;;;;;5029826;28;20459;-67
2022/11/16 07:48:56;;;;;;;9.98;0.88;;;12.50;83.80;;;;;;5007292;28;20481;-67
2022/11/16 07:51:22;;;;;;;2.53;0.75;;;12.50;83.80;;;;;;5010296;28;20038;-67
2022/11/16 07:53:54;;;;;;;1.52;0.82;;;12.60;83.80;;;;;;5008211;28;20151;-69
2022/11/16 07:56:20;;;;;;;2.53;0.80;;;12.60;83.70;;;;;;5010819;28;20148;-67
2022/11/16 07:58:46;;;;;;;1.55;1.17;;;12.60;83.60;;;;;;5012148;28;20021;-68
2022/11/16 08:01:14;;;;;;;0.65;0.63;;;12.60;83.60;;;;;;5012126;28;20449;-68
2022/11/16 08:03:42;;;;;;;0.90;0.90;;;12.70;83.50;;;;;;5021196;28;20042;-69
2022/11/16 08:06:16;;;;;;;1.65;1.05;;;12.70;83.30;;;;;;5046854;28;20034;-69
2022/11/16 08:08:42;;;;;;;1.33;1.08;;;12.80;83.40;;;;;;5047325;28;20075;-68
2022/11/16 08:11:09;;;;;;;2.17;1.13;;;12.80;83.20;;;;;;5017503;28;20029;-67
2022/11/16 08:13:38;;;;;;;1.95;0.95;;;12.80;83.20;;;;;;5016994;28;20093;-69
2022/11/16 08:16:15;;;;;;;1.70;0.80;;;12.80;83.30;;;;;;5016820;28;20092;-69
2022/11/16 08:18:41;;;;;;;0.85;0.82;;;12.80;83.30;;;;;;5011512;28;20033;-70
2022/11/16 08:21:09;;;;;;;1.83;0.95;;;12.70;83.40;;;;;;5048488;28;20121;-70
2022/11/16 08:23:34;;;;;;;1.23;0.82;;;12.70;83.40;;;;;;5020743;28;20353;-70
2022/11/16 08:26:06;;;;;;;1.23;1.10;;;12.80;83.50;;;;;;5011643;28;20030;-66
2022/11/16 08:28:32;;;;;;;0.85;0.80;;;12.80;83.20;;;;;;5011278;28;20287;-67
2022/11/16 08:30:58;;;;;;;1.70;0.82;;;12.80;83.20;;;;;;5035119;28;20073;-67
2022/11/16 08:33:25;;;;;;;2.50;0.98;;;12.80;83.20;;;;;;5008760;28;20495;-67
2022/11/16 08:35:53;;;;;;;2.25;1.52;;;12.80;83.20;;;;;;5015217;28;20064;-66
2022/11/16 08:38:19;;;;;;;19.50;1.33;;;12.70;83.70;;;;;;5011001;28;20030;-66
2022/11/16 08:40:45;;;;;;;1.10;1.00;;;12.70;83.40;;;;;;5041582;28;20033;-66
2022/11/16 08:43:11;;;;;;;2.22;1.33;;;12.70;83.40;;;;;;5011131;28;20072;-66
2022/11/16 08:45:37;;;;;;;2.65;1.33;;;12.70;83.40;;;;;;5017558;28;20441;-66
2022/11/16 08:48:04;;;;;;;3.17;1.63;;;12.70;83.40;;;;;;5006409;28;20029;-66
2022/11/16 08:50:31;;;;;;;1.95;1.08;;;12.80;83.30;;;;;;5009800;28;20029;-70
2022/11/16 08:52:57;;;;;;;1.17;1.00;;;12.80;83.30;;;;;;5010699;28;20100;-70
2022/11/16 08:55:23;;;;;;;4.60;0.88;;;12.90;83.20;;;;;;5043868;28;20061;-70
2022/11/16 08:57:49;;;;;;;2.13;1.50;;;12.90;82.90;;;;;;5011672;28;20057;-70
2022/11/16 09:00:15;;;;;;;1.95;1.33;;;12.90;82.80;;;;;;5011573;28;20054;-70
2022/11/16 09:02:41;;;;;;;3.53;1.45;;;12.90;82.90;;;;;;5011900;28;20038;-70
2022/11/16 09:05:10;;;;;;;2.45;1.35;;;12.90;82.90;;;;;;5026293;28;20072;-66
2022/11/16 09:07:38;;;;;;;2.45;1.38;;;13.00;82.80;;;;;;5007127;28;20437;-66
2022/11/16 09:10:05;;;;;;;1.85;0.95;;;13.00;82.70;;;;;;5010044;28;20021;-67
2022/11/16 09:12:32;;;;;;;1.02;0.80;;;13.00;82.60;;;;;;5011421;28;20504;-66
2022/11/16 09:14:58;;;;;;;1.65;1.20;;;13.10;82.50;;;;;;5041855;28;20030;-66
2022/11/16 09:17:23;;;;;;;6.97;1.30;;;13.10;82.40;;;;;;4990409;28;20108;-67
2022/11/16 09:19:49;;;;;;;1.92;1.52;;;13.30;82.20;;;;;;5001303;28;20100;-66
2022/11/16 09:22:15;;;;;;;9.07;1.63;;;13.30;82.00;;;;;;5010583;28;20030;-66
2022/11/16 09:24:41;;;;;;;1.52;1.23;;;13.40;81.90;;;;;;5042614;28;20040;-67
2022/11/16 09:27:06;;;;;;;3.15;1.08;;;13.50;81.60;;;;;;5008921;28;20026;-67
2022/11/16 09:29:32;;;;;;;2.45;1.20;;;13.50;81.10;;;;;;5044238;28;20436;-67
2022/11/16 09:31:58;;;;;;;1.50;0.95;;;13.60;81.30;;;;;;5019281;28;20409;-66
2022/11/16 09:34:24;;;;;;;3.85;1.17;;;13.70;81.10;;;;;;5025481;28;20025;-67
2022/11/16 09:36:50;;;;;;;1.13;0.95;;;13.70;80.90;;;;;;5028255;28;20060;-67
2022/11/16 09:39:16;;;;;;;3.25;1.05;;;13.80;80.20;;;;;;5051428;28;20064;-66
2022/11/16 09:42:07;;;;;;;2.60;1.45;;;13.90;80.10;;;;;;5028997;28;20045;-67
2022/11/16 09:44:47;;;;;;;4.53;0.88;;;13.90;79.70;;;;;;5028535;28;20063;-71
2022/11/16 09:47:18;;;;;;;4.13;1.00;;;13.90;79.20;;;;;;5000041;28;20465;-71
2022/11/16 09:49:54;;;;;;;3.90;1.00;;;13.80;79.00;;;;;;5024708;28;20021;-70
2022/11/16 09:52:28;;;;;;;2.78;0.95;;;13.80;79.00;;;;;;5015458;28;20358;-71
2022/11/16 09:54:56;;;;;;;1.30;0.63;;;13.70;78.80;;;;;;5022960;28;20017;-67
2022/11/16 09:57:28;;;;;;;2.58;1.38;;;13.70;78.80;;;;;;5021871;28;20578;-71
2022/11/16 09:59:59;;;;;;;1.77;1.20;;;13.80;79.00;;;;;;5016861;28;20095;-71
2022/11/16 10:02:35;;;;;;;2.17;0.80;;;14.00;78.80;;;;;;5015602;28;20109;-71
2022/11/16 10:05:13;;;;;;;2.05;1.00;;;14.20;78.40;;;;;;5021475;28;20113;-71
2022/11/16 10:07:43;;;;;;;8.02;1.40;;;14.30;77.90;;;;;;5026531;28;20028;-70
2022/11/16 10:10:14;;;;;;;3.63;1.08;;;14.30;77.10;;;;;;5029431;28;20017;-70
2022/11/16 10:12:58;;;;;;;2.20;1.20;;;14.30;76.80;;;;;;5024275;28;20036;-70
2022/11/16 10:15:38;;;;;;;1.40;1.15;;;14.30;76.70;;;;;;5029341;28;20029;-71
2022/11/16 10:18:25;;;;;;;3.10;1.00;;;14.40;77.00;;;;;;5029891;28;20528;-70
2022/11/16 10:21:11;;;;;;;1.13;0.90;;;14.60;76.60;;;;;;5018660;28;20116;-70
2022/11/16 10:23:56;;;;;;;4.30;1.33;;;14.80;76.90;;;;;;5031130;28;20107;-70
2022/11/16 10:26:29;;;;;;;2.22;0.80;;;15.10;76.20;;;;;;5025461;28;20055;-70
2022/11/16 10:29:32;;;;;;;0.68;0.68;;;15.30;76.50;;;;;;5027831;28;20026;-70
2022/11/16 10:32:13;;;;;;;2.88;1.02;;;15.80;76.10;;;;;;5009663;28;20088;-70
2022/11/16 10:34:51;;;;;;;1.23;1.13;;;16.60;74.10;;;;;;5033501;28;20036;-66
2022/11/16 10:37:18;;;;;;;5.22;1.27;;;17.60;71.30;;;;;;5014261;28;20034;-66
2022/11/16 10:39:47;;;;;;;0.65;0.65;;;18.50;68.00;;;;;;5014042;28;20092;-70
2022/11/16 10:42:19;;;;;;;1.25;0.57;;;19.30;66.30;;;;;;5009635;28;20056;-70
2022/11/16 10:45:12;;;;;;;1.42;0.95;;;20.60;62.30;;;;;;5014581;28;20033;-70
2022/11/16 10:47:59;;;;;;;3.53;0.80;;;21.30;60.30;;;;;;5012919;28;20183;-66
2022/11/16 10:50:33;;;;;;;2.08;0.70;;;21.30;59.70;;;;;;5004798;28;20384;-72
2022/11/16 10:53:00;;;;;;;7.38;1.13;;;20.80;60.00;;;;;;5023853;28;20053;-70
2022/11/16 10:55:27;;;;;;;2.92;1.15;;;19.70;62.40;;;;;;5024454;28;20014;-69
2022/11/16 10:58:04;;;;;;;2.20;0.80;;;18.70;63.80;;;;;;5020038;28;20033;-69
2022/11/16 11:00:41;;;;;;;0.70;0.63;;;17.80;66.10;;;;;;5025020;28;20018;-69
2022/11/16 11:03:09;;;;;;;1.02;0.52;;;17.30;67.10;;;;;;5026659;28;20377;-69
2022/11/16 11:05:36;;;;;;;6.68;0.90;;;16.90;68.00;;;;;;5012871;28;20449;-69
2022/11/16 11:08:10;;;;;;;1.10;0.63;;;16.90;68.60;;;;;;5025624;28;20091;-69
2022/11/16 11:10:41;;;;;;;1.90;1.02;;;17.90;66.70;;;;;;5013518;28;20381;-69
2022/11/16 11:13:09;;;;;;;1.63;0.82;;;18.80;64.90;;;;;;5015617;28;20074;-70
2022/11/16 11:15:36;;;;;;;1.50;1.02;;;20.10;61.20;;;;;;5046377;28;20499;-70
2022/11/16 11:18:14;;;;;;;8.57;1.10;;;20.00;59.80;;;;;;5019018;28;20014;-71
2022/11/16 11:20:42;;;;;;;1.67;0.93;;;20.00;60.20;;;;;;5020618;28;20469;-70
2022/11/16 11:23:26;;;;;;;2.83;0.82;;;20.50;59.20;;;;;;5017322;28;20536;-70
2022/11/16 11:25:58;;;;;;;1.73;1.05;;;20.40;57.70;;;;;;5019174;28;20099;-70
2022/11/16 11:28:25;;;;;;;2.30;0.70;;;20.10;58.20;;;;;;5016244;28;20029;-70
2022/11/16 11:31:08;;;;;;;2.70;0.80;;;19.50;59.70;;;;;;5044438;28;20108;-70
2022/11/16 11:33:46;;;;;;;2.22;1.10;;;20.10;59.70;;;;;;5011222;28;20034;-70
2022/11/16 11:36:34;;;;;;;6.13;1.08;;;21.70;57.90;;;;;;5013302;28;20030;-71
2022/11/16 11:39:22;;;;;;;4.32;1.27;;;24.00;54.00;;;;;;5032453;28;20085;-71
2022/11/16 11:42:04;;;;;;;1.65;0.98;;;26.00;49.40;;;;;;5007004;28;20370;-71
2022/11/16 11:44:57;;;;;;;2.65;1.60;;;27.40;46.60;;;;;;5011608;28;20041;-72
2022/11/16 11:47:49;;;;;;;3.47;0.93;;;28.10;45.20;;;;;;5013013;28;20424;-70
2022/11/16 11:50:18;;;;;;;1.35;0.93;;;28.40;43.50;;;;;;5011881;28;20156;-70
2022/11/16 11:53:10;;;;;;;1.27;0.80;;;28.00;44.10;;;;;;5012483;28;20519;-70
2022/11/16 11:55:36;;;;;;;1.13;1.02;;;28.60;43.30;;;;;;5008191;28;20021;-70
2022/11/16 11:58:04;;;;;;;1.75;0.70;;;29.30;41.90;;;;;;5042850;28;20041;-71
2022/11/16 12:00:49;;;;;;;3.92;0.75;;;29.90;41.40;;;;;;5012643;28;20033;-71
2022/11/16 12:03:35;;;;;;;1.42;0.60;;;30.40;39.30;;;;;;5012710;28;20049;-70
2022/11/16 12:06:26;;;;;;;1.60;0.95;;;30.50;39.60;;;;;;5012928;28;20029;-70
2022/11/16 12:09:15;;;;;;;4.13;0.97;;;30.80;38.90;;;;;;5006769;28;20022;-71
2022/11/16 12:11:52;;;;;;;1.48;0.40;;;31.40;38.80;;;;;;5002007;28;20088;-71
2022/11/16 12:14:29;;;;;;;0.57;0.57;;;32.00;38.50;;;;;;5007482;28;20500;-71
2022/11/16 12:17:30;;;;;;;0.68;0.68;;;32.10;37.60;;;;;;5013943;28;20029;-67
2022/11/16 12:20:18;;;;;;;2.28;1.65;;;31.50;37.40;;;;;;5007437;28;20036;-66
2022/11/16 12:23:01;;;;;;;0.77;0.63;;;29.30;39.10;;;;;;4999575;28;20096;-66
2022/11/16 12:25:42;;;;;;;1.35;0.70;;;27.50;40.60;;;;;;5012344;28;20419;-66
2022/11/16 12:28:20;;;;;;;1.05;1.00;;;25.60;42.70;;;;;;5017595;28;20044;-66
2022/11/16 12:31:31;;;;;;;2.45;1.10;;;23.60;45.30;;;;;;5023555;28;20026;-67
2022/11/16 12:34:03;;;;;;;1.88;1.40;;;21.70;48.10;;;;;;5011624;28;20018;-71
2022/11/16 12:37:02;;;;;;;2.15;0.60;;;20.30;51.30;;;;;;5011874;28;20052;-70
2022/11/16 12:39:39;;;;;;;1.52;0.70;;;19.50;52.90;;;;;;5023105;28;20021;-70
2022/11/16 12:42:23;;;;;;;0.75;0.73;;;18.70;54.70;;;;;;5025047;28;20022;-70
2022/11/16 12:45:01;;;;;;;1.13;0.65;;;18.10;56.20;;;;;;5010663;28;20054;-70
2022/11/16 12:47:34;;;;;;;0.43;0.40;;;17.80;57.20;;;;;;5042555;28;20432;-70
2022/11/16 12:50:45;;;;;;;0.77;0.50;;;17.70;57.90;;;;;;5011064;28;20015;-70
2022/11/16 12:53:11;;;;;;;1.58;0.55;;;17.80;57.40;;;;;;4999789;28;20850;-70
2022/11/16 12:56:04;;;;;;;1.25;0.60;;;18.30;56.50;;;;;;5011115;28;20026;-71
2022/11/16 12:58:30;;;;;;;1.65;0.50;;;18.80;55.60;;;;;;5008280;28;20523;-67
2022/11/16 13:01:07;;;;;;;3.92;0.82;;;19.00;54.90;;;;;;5016559;28;20049;-67
2022/11/16 13:03:53;;;;;;;1.05;0.63;;;19.10;55.80;;;;;;5017471;28;20095;-67
2022/11/16 13:06:32;;;;;;;0.73;0.35;;;19.00;55.30;;;;;;5025470;28;20045;-67
2022/11/16 13:09:07;;;;;;;0.63;0.50;;;19.10;55.60;;;;;;5029117;28;20063;-67
2022/11/16 13:11:46;;;;;;;3.13;0.85;;;19.60;55.40;;;;;;5013264;28;20026;-67
2022/11/16 13:14:19;;;;;;;0.90;0.60;;;20.20;54.30;;;;;;5018566;28;20056;-66
2022/11/16 13:16:46;;;;;;;1.25;0.70;;;20.30;53.60;;;;;;5010335;28;20036;-67
2022/11/16 13:19:15;;;;;;;2.05;0.63;;;20.30;54.30;;;;;;5010128;28;20037;-71
2022/11/16 13:21:46;;;;;;;3.60;0.65;;;20.50;53.70;;;;;;5011142;28;20412;-71
2022/11/16 13:24:40;;;;;;;1.42;0.50;;;21.20;52.70;;;;;;5012277;28;20025;-70
2022/11/16 13:27:41;;;;;;;1.23;0.77;;;22.20;51.20;;;;;;5014602;28;20377;-71
2022/11/16 13:30:18;;;;;;;2.05;0.52;;;22.20;49.40;;;;;;5005889;28;20051;-71
2022/11/16 13:33:25;;;;;;;2.45;0.50;;;21.40;50.30;;;;;;5008557;28;20100;-71
2022/11/16 13:35:51;;;;;;;1.33;0.77;;;20.50;52.00;;;;;;5041431;28;20046;-67
2022/11/16 13:38:51;;;;;;;0.38;0.38;;;19.80;54.20;;;;;;5021233;28;20397;-67
2022/11/16 13:41:33;;;;;;;0.30;0.30;;;19.90;54.20;;;;;;5012109;28;20116;-67
2022/11/16 13:44:01;;;;;;;0.63;0.60;;;20.80;52.90;;;;;;5017682;28;20045;-67